Time;durP1;ratioP1;P1;durP2;ratioP2;P2;SDS_P1;SDS_P2;PMS_P1;PMS_P2;Temp;Humidity;BMP_temperature;BMP_pressure;BME280_temperature;BME280_humidity;BME280_pressure;Samples;Min_cycle;Max_cycle;Signal;HPM_P1;HPM_P2
2022/06/29 00:00:16;;;;;;;;;;;;;;;21.14;50.31;101154.69;7284001;19;153167;-82
2022/06/29 00:02:44;;;;;;;;;;;;;;;21.15;49.97;101147.91;7284539;19;154805;-83
2022/06/29 00:05:12;;;;;;;;;;;;;;;21.15;49.78;101153.53;7281636;19;153501;-82
2022/06/29 00:07:40;;;;;;;;;;;;;;;21.17;50.22;101145.63;7283168;19;154256;-83
2022/06/29 00:10:07;;;;;;;;;;;;;;;21.16;49.96;101146.78;7285600;19;151819;-82
2022/06/29 00:12:34;;;;;;;;;;;;;;;21.16;50.27;101141.16;7291716;19;153597;-82
2022/06/29 00:15:04;;;;;;;;;;;;;;;21.18;49.92;101140.84;7285028;19;152293;-82
2022/06/29 00:17:32;;;;;;;;;;;;;;;21.16;50.32;101135.53;7284562;19;152630;-82
2022/06/29 00:20:00;;;;;;;;;;;;;;;21.17;50.45;101141.97;7282963;19;153618;-82
2022/06/29 00:22:27;;;;;;;;;;;;;;;21.18;50.38;101135.22;7286415;19;152564;-82
2022/06/29 00:24:55;;;;;;;;;;;;;;;21.27;50.21;101136.19;7285559;19;152040;-82
2022/06/29 00:27:22;;;;;;;;;;;;;;;21.26;50.60;101132.53;7283770;19;153671;-83
2022/06/29 00:29:49;;;;;;;;;;;;;;;21.24;50.56;101125.56;7284008;19;154906;-82
2022/06/29 00:32:15;;;;;;;;;;;;;;;21.23;50.49;101121.06;7283411;19;152804;-82
2022/06/29 00:34:42;;;;;;;;;;;;;;;21.24;50.63;101122.75;7286658;19;152935;-83
2022/06/29 00:37:09;;;;;;;;;;;;;;;21.24;50.27;101123.59;7285662;19;153465;-83
2022/06/29 00:39:35;;;;;;;;;;;;;;;21.23;50.87;101121.06;7283676;19;155057;-83
2022/06/29 00:42:02;;;;;;;;;;;;;;;21.21;50.64;101129.81;7284400;19;152455;-83
2022/06/29 00:44:29;;;;;;;;;;;;;;;21.21;50.52;101126.19;7283507;19;152771;-83
2022/06/29 00:46:58;;;;;;;;;;;;;;;21.21;50.78;101129.81;7281041;19;153463;-83
2022/06/29 00:49:26;;;;;;;;;;;;;;;21.22;51.04;101133.44;7274371;19;153117;-83
2022/06/29 00:52:07;;;;;;;;;;;;;;;21.22;50.96;101127.84;7277888;19;152637;-83
2022/06/29 00:54:36;;;;;;;;;;;;;;;21.23;51.10;101141.59;7284189;19;153706;-82
2022/06/29 00:57:06;;;;;;;;;;;;;;;21.27;51.38;101134.19;7292126;19;151998;-82
2022/06/29 00:59:37;;;;;;;;;;;;;;;21.29;50.92;101136.72;7284347;19;155004;-81
2022/06/29 01:02:05;;;;;;;;;;;;;;;21.31;50.73;101128.78;7281896;19;152224;-82
2022/06/29 01:04:31;;;;;;;;;;;;;;;21.34;50.88;101127.34;7283345;19;155605;-82
2022/06/29 01:06:58;;;;;;;;;;;;;;;21.37;50.84;101138.81;7278992;19;154382;-81
2022/06/29 01:09:25;;;;;;;;;;;;;;;21.36;50.71;101134.31;7285531;19;153889;-82
2022/06/29 01:11:53;;;;;;;;;;;;;;;21.32;50.97;101124.00;7283342;19;153933;-81
2022/06/29 01:14:20;;;;;;;;;;;;;;;21.28;50.75;101129.41;7279220;19;153982;-81
2022/06/29 01:16:47;;;;;;;;;;;;;;;21.29;51.06;101128.28;7289674;19;151943;-82
2022/06/29 01:19:14;;;;;;;;;;;;;;;21.31;50.78;101131.59;7280522;19;153375;-81
2022/06/29 01:21:42;;;;;;;;;;;;;;;21.27;50.95;101131.38;7281582;19;152563;-81
2022/06/29 01:24:10;;;;;;;;;;;;;;;21.28;51.07;101127.44;7285289;19;152795;-81
2022/06/29 01:26:39;;;;;;;;;;;;;;;21.32;50.95;101133.28;7280511;19;155981;-82
2022/06/29 01:29:06;;;;;;;;;;;;;;;21.31;51.22;101131.59;7285556;19;152033;-80
2022/06/29 01:31:32;;;;;;;;;;;;;;;21.32;51.34;101124.84;7281356;19;155105;-81
2022/06/29 01:34:01;;;;;;;;;;;;;;;21.32;51.40;101129.63;7279873;19;154360;-81
2022/06/29 01:36:32;;;;;;;;;;;;;;;21.31;51.47;101125.97;7280429;19;152094;-81
2022/06/29 01:38:59;;;;;;;;;;;;;;;21.32;51.33;101124.84;7290393;19;152864;-80
2022/06/29 01:41:26;;;;;;;;;;;;;;;21.29;51.66;101122.66;7282198;19;152756;-80
2022/06/29 01:43:54;;;;;;;;;;;;;;;21.30;52.09;101121.53;7282251;19;152999;-81
2022/06/29 01:46:22;;;;;;;;;;;;;;;21.30;52.07;101118.72;7281335;19;153006;-80
2022/06/29 01:48:49;;;;;;;;;;;;;;;21.30;52.32;101121.53;7282050;19;152336;-81
2022/06/29 01:51:16;;;;;;;;;;;;;;;21.32;52.13;101121.19;7281493;19;153871;-81
2022/06/29 01:53:43;;;;;;;;;;;;;;;21.28;52.10;101110.59;7282101;19;155044;-80
2022/06/29 01:56:10;;;;;;;;;;;;;;;21.30;52.69;101113.09;7281021;19;152542;-81
2022/06/29 01:58:36;;;;;;;;;;;;;;;21.30;52.70;101113.91;7280512;19;154899;-81
2022/06/29 02:01:03;;;;;;;;;;;;;;;21.31;52.60;101114.72;7289068;19;152224;-81
2022/06/29 02:03:30;;;;;;;;;;;;;;;21.32;52.79;101101.53;7281267;19;153352;-80
2022/06/29 02:05:56;;;;;;;;;;;;;;;21.32;52.94;101099.53;7277903;19;153251;-81
2022/06/29 02:08:23;;;;;;;;;;;;;;;21.35;52.76;101098.09;7282323;19;151823;-81
2022/06/29 02:10:50;;;;;;;;;;;;;;;21.34;52.78;101093.63;7281063;19;153563;-81
2022/06/29 02:13:17;;;;;;;;;;;;;;;21.32;53.08;101090.28;7280264;19;153232;-81
2022/06/29 02:15:43;;;;;;;;;;;;;;;21.31;52.94;101095.06;7282933;19;151769;-80
2022/06/29 02:18:10;;;;;;;;;;;;;;;21.30;52.86;101093.41;7279380;19;155034;-81
2022/06/29 02:20:37;;;;;;;;;;;;;;;21.32;52.96;101095.91;7279951;19;154095;-80
2022/06/29 02:23:03;;;;;;;;;;;;;;;21.31;53.59;101083.81;7288667;19;151813;-81
2022/06/29 02:25:30;;;;;;;;;;;;;;;21.35;53.29;101090.47;7280213;19;154065;-81
2022/06/29 02:27:57;;;;;;;;;;;;;;;21.33;53.21;101089.97;7281706;19;152439;-81
2022/06/29 02:34:43;;;;;;;;;;;;;;;21.31;53.20;101086.63;7282589;19;153374;-82
2022/06/29 02:35:56;;;;;;;;;;;;;;;21.38;53.00;101086.22;7279746;19;152145;-82
2022/06/29 02:38:23;;;;;;;;;;;;;;;21.37;52.97;101085.41;7282915;19;153386;-80
2022/06/29 02:40:50;;;;;;;;;;;;;;;21.34;53.27;101085.19;7280688;19;153222;-81
2022/06/29 02:43:16;;;;;;;;;;;;;;;21.34;53.19;101079.56;7280714;19;152113;-81
2022/06/29 02:45:43;;;;;;;;;;;;;;;21.39;53.47;101076.66;7288666;19;152931;-81
2022/06/29 02:48:10;;;;;;;;;;;;;;;21.41;53.10;101074.34;7281350;19;152648;-82
2022/06/29 02:50:37;;;;;;;;;;;;;;;21.38;53.19;101075.84;7279216;19;153661;-82
2022/06/29 02:53:04;;;;;;;;;;;;;;;21.37;53.16;101074.16;7274506;19;152354;-82
2022/06/29 02:55:30;;;;;;;;;;;;;;;21.35;53.08;101070.00;7282594;19;152644;-81
2022/06/29 02:57:57;;;;;;;;;;;;;;;21.40;53.08;101070.72;7280073;19;152644;-82
2022/06/29 03:00:24;;;;;;;;;;;;;;;21.35;53.23;101070.00;7276548;19;153651;-83
2022/06/29 03:02:50;;;;;;;;;;;;;;;21.32;53.69;101071.44;7279072;19;152049;-82
2022/06/29 03:05:17;;;;;;;;;;;;;;;21.30;53.58;101063.31;7277876;19;155028;-81
2022/06/29 03:07:44;;;;;;;;;;;;;;;21.39;53.79;101057.81;7288217;19;153831;-81
2022/06/29 03:10:11;;;;;;;;;;;;;;;21.32;53.54;101048.97;7278686;19;153390;-82
2022/06/29 03:12:37;;;;;;;;;;;;;;;21.36;53.67;101050.00;7275620;19;154892;-82
2022/06/29 03:15:05;;;;;;;;;;;;;;;21.34;53.18;101048.66;7280954;19;152241;-81
2022/06/29 03:17:32;;;;;;;;;;;;;;;21.34;53.21;101040.22;7281351;19;154135;-81
2022/06/29 03:19:59;;;;;;;;;;;;;;;21.32;53.66;101040.53;7276362;19;154272;-81
2022/06/29 03:22:26;;;;;;;;;;;;;;;21.31;53.53;101033.22;7281973;19;152467;-81
2022/06/29 03:24:52;;;;;;;;;;;;;;;21.35;53.53;101030.66;7281021;19;152876;-81
2022/06/29 03:27:19;;;;;;;;;;;;;;;21.32;53.71;101037.72;7285834;19;153467;-81
2022/06/29 03:29:46;;;;;;;;;;;;;;;21.34;53.56;101027.00;7281194;19;152684;-81
2022/06/29 03:32:13;;;;;;;;;;;;;;;21.33;53.72;101027.31;7277642;19;153098;-81
2022/06/29 03:34:40;;;;;;;;;;;;;;;21.38;53.25;101027.22;7278285;19;152085;-81
2022/06/29 03:37:06;;;;;;;;;;;;;;;21.34;53.35;101026.16;7279456;19;152109;-81
2022/06/29 03:39:33;;;;;;;;;;;;;;;21.32;53.39;101026.47;7277676;19;154659;-81
2022/06/29 03:42:00;;;;;;;;;;;;;;;21.28;53.60;101029.09;7281986;19;155272;-81
2022/06/29 03:44:26;;;;;;;;;;;;;;;21.34;53.76;101024.19;7279778;19;152639;-82
2022/06/29 03:46:53;;;;;;;;;;;;;;;21.34;53.37;101026.16;7276488;19;153484;-81
2022/06/29 03:49:20;;;;;;;;;;;;;;;21.28;53.71;101015.03;7287947;19;151772;-81
2022/06/29 03:51:47;;;;;;;;;;;;;;;21.28;53.83;101015.03;7276301;19;152845;-82
2022/06/29 03:54:13;;;;;;;;;;;;;;;21.26;54.00;101013.66;7280936;19;151619;-81
2022/06/29 03:56:40;;;;;;;;;;;;;;;21.25;53.81;101009.22;7277824;19;154050;-81
2022/06/29 03:59:09;;;;;;;;;;;;;;;21.30;53.55;101009.09;7280677;19;154002;-82
2022/06/29 04:01:37;;;;;;;;;;;;;;;21.29;53.55;101010.25;7279109;19;152666;-82
2022/06/29 04:04:06;;;;;;;;;;;;;;;21.30;53.68;101011.91;7286089;19;153074;-83
2022/06/29 04:06:33;;;;;;;;;;;;;;;21.27;53.74;101018.13;7281820;19;153940;-82
2022/06/29 04:08:59;;;;;;;;;;;;;;;21.25;54.01;101014.81;7287282;19;152151;-82
2022/06/29 04:14:12;;;;;;;;;;;;;;;21.29;54.09;101015.88;7286650;19;152258;-81
2022/06/29 04:16:39;;;;;;;;;;;;;;;21.30;53.78;101018.34;7284815;19;152780;-82
2022/06/29 04:19:05;;;;;;;;;;;;;;;21.30;53.88;101020.34;7283509;19;152476;-81
2022/06/29 04:21:32;;;;;;;;;;;;;;;21.29;54.28;101018.69;7283916;19;152508;-81
2022/06/29 04:23:59;;;;;;;;;;;;;;;21.27;54.01;101020.94;7287063;19;152617;-80
2022/06/29 04:26:26;;;;;;;;;;;;;;;21.28;54.25;101020.66;7282662;19;153955;-80
2022/06/29 04:28:53;;;;;;;;;;;;;;;21.29;54.30;101013.06;7284031;19;152751;-80
2022/06/29 04:31:19;;;;;;;;;;;;;;;21.26;54.33;101011.69;7285482;19;153119;-81
2022/06/29 04:33:46;;;;;;;;;;;;;;;21.26;54.30;101022.09;7285929;19;154902;-81
2022/06/29 04:36:13;;;;;;;;;;;;;;;21.29;54.42;101013.06;7283635;19;152326;-81
2022/06/29 04:38:40;;;;;;;;;;;;;;;21.28;54.63;101015.03;7284738;19;153929;-81
2022/06/29 04:41:07;;;;;;;;;;;;;;;21.28;54.42;101009.41;7285292;19;152159;-81
2022/06/29 04:43:34;;;;;;;;;;;;;;;21.25;54.51;101006.41;7283832;19;152533;-81
2022/06/29 04:46:19;;;;;;;;;;;;;;;21.27;54.23;101012.53;7281690;19;153838;-81
2022/06/29 04:48:46;;;;;;;;;;;;;;;21.25;54.92;101003.59;7281183;19;152428;-81
2022/06/29 04:51:15;;;;;;;;;;;;;;;21.24;54.50;101014.00;7279814;19;154232;-81
2022/06/29 04:53:44;;;;;;;;;;;;;;;21.27;54.40;101007.72;7281728;19;154656;-81
2022/06/29 04:56:11;;;;;;;;;;;;;;;21.26;54.57;101005.22;7291239;19;151932;-81
2022/06/29 04:58:38;;;;;;;;;;;;;;;21.24;54.68;101007.53;7282308;19;153531;-82
2022/06/29 05:01:05;;;;;;;;;;;;;;;21.26;54.53;101005.22;7285227;19;152451;-81
2022/06/29 05:03:32;;;;;;;;;;;;;;;21.27;55.05;101007.72;7280971;19;153742;-82
2022/06/29 05:05:59;;;;;;;;;;;;;;;21.32;54.50;101009.59;7280721;19;153864;-81
2022/06/29 05:08:25;;;;;;;;;;;;;;;21.32;54.43;101006.81;7281694;19;151918;-81
2022/06/29 05:10:53;;;;;;;;;;;;;;;21.35;54.73;101002.56;7283875;19;153741;-82
2022/06/29 05:13:19;;;;;;;;;;;;;;;21.33;54.39;101005.66;7281983;19;153603;-82
2022/06/29 05:15:46;;;;;;;;;;;;;;;21.36;54.09;101004.19;7281626;19;152091;-82
2022/06/29 05:18:13;;;;;;;;;;;;;;;21.30;54.09;100998.66;7290533;19;153670;-82
2022/06/29 05:20:50;;;;;;;;;;;;;;;21.28;54.30;101003.78;7283042;19;152183;-82
2022/06/29 05:23:18;;;;;;;;;;;;;;;21.27;54.33;101004.09;7282676;19;154201;-82
2022/06/29 05:25:45;;;;;;;;;;;;;;;21.29;54.30;100997.03;7280873;19;153384;-81
2022/06/29 05:28:13;;;;;;;;;;;;;;;21.29;54.28;100999.00;7284952;19;151945;-82
2022/06/29 05:30:40;;;;;;;;;;;;;;;21.29;54.23;100988.59;7283255;19;154600;-81
2022/06/29 05:33:06;;;;;;;;;;;;;;;21.27;54.32;100988.06;7282374;19;154394;-81
2022/06/29 05:35:33;;;;;;;;;;;;;;;21.24;54.41;100980.28;7279468;19;154628;-81
2022/06/29 05:38:01;;;;;;;;;;;;;;;21.23;54.64;100969.34;7291129;19;156076;-81
2022/06/29 05:40:29;;;;;;;;;;;;;;;21.22;54.85;100976.09;7284205;19;151973;-81
2022/06/29 05:42:57;;;;;;;;;;;;;;;21.23;54.66;100977.75;7284738;19;153659;-81
2022/06/29 05:45:28;;;;;;;;;;;;;;;21.29;54.47;100976.53;7280659;19;153412;-81
2022/06/29 05:47:55;;;;;;;;;;;;;;;21.39;54.45;100984.75;7284717;19;153030;-81
2022/06/29 05:50:22;;;;;;;;;;;;;;;21.33;54.22;100983.19;7280654;19;152730;-81
2022/06/29 05:52:49;;;;;;;;;;;;;;;21.29;54.42;100987.75;7280350;19;156575;-80
2022/06/29 05:55:16;;;;;;;;;;;;;;;21.30;54.81;100981.81;7280677;19;153491;-81
2022/06/29 05:57:43;;;;;;;;;;;;;;;21.26;54.60;100989.19;7283640;19;152636;-81
2022/06/29 06:00:10;;;;;;;;;;;;;;;21.32;54.56;100984.31;7286080;19;154139;-81
2022/06/29 06:02:37;;;;;;;;;;;;;;;21.27;54.71;100993.69;7284431;19;153589;-81
2022/06/29 06:05:04;;;;;;;;;;;;;;;21.28;54.82;100997.31;7278378;19;153344;-82
2022/06/29 06:07:31;;;;;;;;;;;;;;;21.26;55.13;100994.00;7281865;19;152132;-82
2022/06/29 06:09:58;;;;;;;;;;;;;;;21.28;54.57;100986.94;7281253;19;152521;-81
2022/06/29 06:12:25;;;;;;;;;;;;;;;21.30;54.94;100979.00;7281666;19;156597;-81
2022/06/29 06:14:51;;;;;;;;;;;;;;;21.26;55.00;100983.59;7280891;19;152648;-81
2022/06/29 06:17:18;;;;;;;;;;;;;;;21.24;55.04;100983.06;7283105;19;155367;-81
2022/06/29 06:19:45;;;;;;;;;;;;;;;21.25;55.25;100997.97;7281288;19;153343;-82
2022/06/29 06:22:12;;;;;;;;;;;;;;;21.32;55.27;100995.56;7287682;19;152564;-81
2022/06/29 06:24:39;;;;;;;;;;;;;;;21.30;54.73;100995.06;7280915;19;153909;-82
2022/06/29 06:27:06;;;;;;;;;;;;;;;21.33;55.09;100999.19;7279914;19;152378;-82
2022/06/29 06:29:33;;;;;;;;;;;;;;;21.32;55.06;100992.75;7284121;19;152943;-80
2022/06/29 06:32:01;;;;;;;;;;;;;;;21.36;55.06;100981.69;7279305;19;152506;-81
2022/06/29 06:34:28;;;;;;;;;;;;;;;21.32;54.71;100984.31;7275838;19;152748;-81
2022/06/29 06:36:55;;;;;;;;;;;;;;;21.27;54.83;100998.47;7281120;19;153517;-80
2022/06/29 06:39:21;;;;;;;;;;;;;;;21.32;54.97;101001.19;7279687;19;157915;-81
2022/06/29 06:41:48;;;;;;;;;;;;;;;21.33;54.71;101004.81;7279097;19;155878;-81
2022/06/29 06:44:15;;;;;;;;;;;;;;;21.29;54.75;100990.56;7288775;19;153284;-79
2022/06/29 06:46:46;;;;;;;;;;;;;;;21.22;54.67;100999.41;7281208;19;153407;-79
2022/06/29 06:49:13;;;;;;;;;;;;;;;21.20;54.82;101006.50;7279875;19;153118;-78
2022/06/29 06:51:40;;;;;;;;;;;;;;;21.20;54.29;100992.44;7278955;19;153112;-85
2022/06/29 06:54:07;;;;;;;;;;;;;;;21.24;54.95;100993.47;7280553;19;152001;-82
2022/06/29 06:56:34;;;;;;;;;;;;;;;21.20;55.49;100995.25;7283056;19;152958;-82
2022/06/29 06:59:00;;;;;;;;;;;;;;;21.20;56.00;100998.06;7278714;19;153640;-83
2022/06/29 07:01:27;;;;;;;;;;;;;;;21.21;56.14;101000.53;7281722;19;152430;-82
2022/06/29 07:03:54;;;;;;;;;;;;;;;21.29;56.10;100993.38;7275257;19;153049;-84
2022/06/29 07:06:21;;;;;;;;;;;;;;;21.32;55.64;101004.00;7285250;19;156178;-82
2022/06/29 07:08:49;;;;;;;;;;;;;;;21.44;56.05;101009.91;7282016;19;153953;-84
2022/06/29 07:11:16;;;;;;;;;;;;;;;21.46;56.13;101012.41;7279904;19;154317;-83
2022/06/29 07:13:43;;;;;;;;;;;;;;;21.43;55.91;101010.25;7280024;19;152328;-84
2022/06/29 07:16:10;;;;;;;;;;;;;;;21.34;56.56;101004.53;7283575;19;152126;-83
2022/06/29 07:18:37;;;;;;;;;;;;;;;21.33;56.76;101004.81;7279434;19;154108;-82
2022/06/29 07:21:03;;;;;;;;;;;;;;;21.29;56.84;101007.44;7281304;19;154746;-83
2022/06/29 07:23:30;;;;;;;;;;;;;;;21.30;56.65;101000.69;7281146;19;153883;-83
2022/06/29 07:25:57;;;;;;;;;;;;;;;21.35;56.93;100999.75;7280395;19;154754;-83
2022/06/29 07:28:24;;;;;;;;;;;;;;;21.45;56.73;101003.16;7288715;19;151635;-81
2022/06/29 07:30:51;;;;;;;;;;;;;;;21.47;56.38;100994.41;7278624;19;153479;-80
2022/06/29 07:33:18;;;;;;;;;;;;;;;21.56;55.99;101007.41;7275860;19;152405;-79
2022/06/29 07:35:45;;;;;;;;;;;;;;;21.60;55.89;101002.00;7278931;19;153996;-78
2022/06/29 07:38:12;;;;;;;;;;;;;;;21.62;55.64;101003.34;7283052;19;153940;-79
2022/06/29 07:40:38;;;;;;;;;;;;;;;21.65;55.24;100997.09;7286919;19;152388;-79
2022/06/29 07:43:05;;;;;;;;;;;;;;;21.69;55.34;101000.09;7287563;19;153557;-79
2022/06/29 07:45:32;;;;;;;;;;;;;;;21.72;55.24;101000.31;7286316;19;153608;-79
2022/06/29 07:48:00;;;;;;;;;;;;;;;21.74;54.79;100997.19;7293513;19;151686;-79
2022/06/29 07:50:27;;;;;;;;;;;;;;;21.76;54.84;100996.88;7283039;19;154538;-78
2022/06/29 07:52:54;;;;;;;;;;;;;;;21.77;54.91;100981.66;7286906;19;154601;-79
2022/06/29 07:55:21;;;;;;;;;;;;;;;21.80;54.34;100978.22;7285912;19;153448;-78
2022/06/29 07:57:47;;;;;;;;;;;;;;;21.82;54.63;100982.38;7286193;19;153347;-78
2022/06/29 08:00:14;;;;;;;;;;;;;;;21.84;54.10;100985.72;7284451;19;151911;-79
2022/06/29 08:02:41;;;;;;;;;;;;;;;21.88;54.16;100991.53;7287548;19;153581;-79
2022/06/29 08:05:08;;;;;;;;;;;;;;;21.94;54.29;100995.94;7282320;19;154584;-79
2022/06/29 08:07:35;;;;;;;;;;;;;;;21.99;53.99;100999.44;7286495;19;151857;-79
2022/06/29 08:10:03;;;;;;;;;;;;;;;22.03;53.63;100999.66;7293289;19;153459;-78
2022/06/29 08:12:30;;;;;;;;;;;;;;;22.08;53.48;101002.31;7289224;19;151978;-78
2022/06/29 08:14:56;;;;;;;;;;;;;;;22.13;53.35;101005.00;7285023;19;153961;-78
2022/06/29 08:17:23;;;;;;;;;;;;;;;22.16;53.54;101001.59;7284893;19;153212;-81
2022/06/29 08:19:58;;;;;;;;;;;;;;;22.20;53.12;100998.97;7284277;19;152029;-81
2022/06/29 08:22:25;;;;;;;;;;;;;;;22.24;53.18;100997.16;7286389;19;153176;-80
2022/06/29 08:24:52;;;;;;;;;;;;;;;22.27;53.14;100997.34;7284487;19;152426;-79
2022/06/29 08:27:20;;;;;;;;;;;;;;;22.32;52.72;101010.47;7288070;19;151939;-80
2022/06/29 08:30:07;;;;;;;;;;;;;;;22.33;52.72;101007.34;7285642;19;152585;-80
2022/06/29 08:32:34;;;;;;;;;;;;;;;22.37;52.66;101013.16;7287074;19;153215;-80
2022/06/29 08:35:01;;;;;;;;;;;;;;;22.39;52.86;101016.50;7277765;19;153919;-81
2022/06/29 08:37:34;;;;;;;;;;;;;;;22.40;52.55;101013.34;7284728;19;154003;-81
2022/06/29 08:40:00;;;;;;;;;;;;;;;22.42;52.34;101019.50;7285610;19;151814;-81
2022/06/29 08:42:27;;;;;;;;;;;;;;;22.44;52.50;101005.13;7287424;19;152729;-81
2022/06/29 08:44:55;;;;;;;;;;;;;;;22.45;52.25;101018.88;7284100;19;154370;-81
2022/06/29 08:47:22;;;;;;;;;;;;;;;22.44;52.52;101010.75;7284098;19;151863;-80
2022/06/29 08:49:48;;;;;;;;;;;;;;;22.45;52.17;101006.75;7281654;19;151936;-80
2022/06/29 08:52:16;;;;;;;;;;;;;;;22.46;52.00;100983.09;7282476;19;154109;-80
2022/06/29 08:54:44;;;;;;;;;;;;;;;22.47;52.29;100963.06;7290847;19;152425;-80
2022/06/29 08:57:11;;;;;;;;;;;;;;;22.47;51.92;100960.25;7286380;19;153927;-80
2022/06/29 08:59:38;;;;;;;;;;;;;;;22.48;51.87;100970.38;7285751;19;152040;-80
2022/06/29 09:02:25;;;;;;;;;;;;;;;22.48;52.02;100970.38;7285373;19;155784;-80
2022/06/29 09:04:53;;;;;;;;;;;;;;;22.48;51.59;100973.19;7281975;19;154678;-80
2022/06/29 09:07:21;;;;;;;;;;;;;;;22.48;51.95;100977.97;7283457;19;152203;-80
2022/06/29 09:09:56;;;;;;;;;;;;;;;22.49;51.57;100979.63;7285115;19;151702;-80
2022/06/29 09:12:23;;;;;;;;;;;;;;;22.48;52.06;100986.44;7283741;19;156548;-80
2022/06/29 09:14:50;;;;;;;;;;;;;;;22.47;51.86;100982.78;7282708;19;151906;-80
2022/06/29 09:17:17;;;;;;;;;;;;;;;22.47;51.77;100985.59;7291348;19;151767;-81
2022/06/29 09:19:45;;;;;;;;;;;;;;;22.47;52.09;100987.59;7282257;19;152167;-80
2022/06/29 09:22:13;;;;;;;;;;;;;;;22.45;52.50;100987.88;7284837;19;153051;-80
2022/06/29 09:24:40;;;;;;;;;;;;;;;22.44;52.27;100991.84;7286077;19;153079;-81
2022/06/29 09:27:26;;;;;;;;;;;;;;;22.45;52.07;100992.69;7285772;19;152000;-82
2022/06/29 09:29:53;;;;;;;;;;;;;;;22.44;51.97;100991.84;7287057;19;154149;-82
2022/06/29 09:32:21;;;;;;;;;;;;;;;22.46;51.81;100994.34;7280493;19;154133;-82
2022/06/29 09:34:49;;;;;;;;;;;;;;;22.46;51.68;101003.63;7279568;19;152663;-82
2022/06/29 09:37:17;;;;;;;;;;;;;;;22.45;51.74;100995.50;7281228;19;154277;-83
2022/06/29 09:39:51;;;;;;;;;;;;;;;22.46;52.34;100995.19;7288107;19;152870;-82
2022/06/29 09:42:26;;;;;;;;;;;;;;;22.50;52.04;100989.75;7285575;19;152647;-82
2022/06/29 09:44:53;;;;;;;;;;;;;;;22.50;52.30;100995.38;7282961;19;154064;-80
2022/06/29 09:47:21;;;;;;;;;;;;;;;22.53;52.35;100991.94;7283936;19;153206;-83
2022/06/29 09:49:47;;;;;;;;;;;;;;;22.48;52.86;100997.69;7282487;19;151956;-81
2022/06/29 09:52:17;;;;;;;;;;;;;;;22.51;52.98;100997.88;7281592;19;153900;-82
2022/06/29 09:54:51;;;;;;;;;;;;;;;22.51;52.88;100997.03;7284206;19;151736;-82
2022/06/29 09:57:27;;;;;;;;;;;;;;;22.49;53.25;100994.53;7280887;19;153847;-81
2022/06/29 10:02:52;;;;;;;;;;;;;;;22.50;52.97;100996.22;7286735;19;152866;-81
2022/06/29 10:05:25;;;;;;;;;;;;;;;22.67;54.63;101011.56;7236400;19;153139;-81
2022/06/29 10:07:53;;;;;;;;;;;;;;;22.57;56.18;101007.88;7270558;19;152734;-81
2022/06/29 10:10:21;;;;;;;;;;;;;;;22.57;55.29;101019.13;7281428;19;152280;-81
2022/06/29 10:15:42;;;;;;;;;;;;;;;22.56;56.31;101009.00;7280743;19;152062;-82
2022/06/29 10:18:27;;;;;;;;;;;;;;;22.50;55.77;101015.09;7281385;19;153423;-82
2022/06/29 10:20:54;;;;;;;;;;;;;;;22.49;56.22;101011.44;7278056;19;152504;-81
2022/06/29 10:23:40;;;;;;;;;;;;;;;22.56;57.28;101005.38;7290075;19;152358;-81
2022/06/29 10:26:35;;;;;;;;;;;;;;;22.56;56.89;101009.00;7281368;19;153201;-82
2022/06/29 10:29:07;;;;;;;;;;;;;;;22.57;57.31;101007.88;7280889;19;152039;-81
2022/06/29 10:31:49;;;;;;;;;;;;;;;22.57;57.61;101004.22;7282774;19;154258;-81
2022/06/29 10:34:41;;;;;;;;;;;;;;;22.56;57.96;101006.19;7278314;19;153544;-81
2022/06/29 10:37:09;;;;;;;;;;;;;;;22.52;58.27;101007.16;7281173;19;152146;-82
2022/06/29 10:39:41;;;;;;;;;;;;;;;22.51;57.67;101006.31;7284525;19;152926;-82
2022/06/29 10:45:14;;;;;;;;;;;;;;;22.49;56.87;101007.78;7279726;19;157260;-82
2022/06/29 10:47:56;;;;;;;;;;;;;;;22.46;56.50;101005.63;7288874;19;153088;-82
2022/06/29 10:50:23;;;;;;;;;;;;;;;22.41;56.96;101009.41;7273001;19;152355;-82
2022/06/29 10:52:51;;;;;;;;;;;;;;;22.40;56.79;101015.34;7270870;19;153655;-82
2022/06/29 10:55:21;;;;;;;;;;;;;;;22.38;57.06;101017.66;7277720;19;153576;-82
2022/06/29 10:57:53;;;;;;;;;;;;;;;22.39;56.57;101014.53;7281971;19;152182;-82
2022/06/29 11:00:26;;;;;;;;;;;;;;;22.36;56.55;101012.34;7279980;19;155274;-81
2022/06/29 11:02:53;;;;;;;;;;;;;;;22.38;56.76;101020.47;7276512;19;154502;-82
2022/06/29 11:05:20;;;;;;;;;;;;;;;22.37;56.42;101025.25;7276813;19;152403;-82
2022/06/29 11:13:23;;;;;;;;;;;;;;;22.33;54.95;101027.06;7280622;19;152903;-81
2022/06/29 11:15:51;;;;;;;;;;;;;;;22.28;55.26;101027.19;7275591;19;153456;-81
2022/06/29 11:18:19;;;;;;;;;;;;;;;22.26;55.34;101026.66;7279623;19;152113;-81
2022/06/29 11:20:50;;;;;;;;;;;;;;;22.24;55.20;101016.88;7278113;19;153671;-81
2022/06/29 11:23:20;;;;;;;;;;;;;;;22.26;55.39;101023.03;7276546;19;155004;-82
2022/06/29 11:25:49;;;;;;;;;;;;;;;22.27;55.45;101010.59;7280120;19;152622;-82
2022/06/29 11:28:17;;;;;;;;;;;;;;;22.27;55.41;101005.81;7279537;19;153555;-82
2022/06/29 11:31:02;;;;;;;;;;;;;;;22.28;55.12;101003.81;7279868;19;153320;-81
2022/06/29 11:33:30;;;;;;;;;;;;;;;22.20;55.47;101001.78;7284764;19;152012;-81
2022/06/29 11:36:02;;;;;;;;;;;;;;;22.18;55.30;100997.28;7273352;19;153493;-81
2022/06/29 11:38:29;;;;;;;;;;;;;;;22.16;55.33;101001.59;7280052;19;151912;-81
2022/06/29 11:40:56;;;;;;;;;;;;;;;22.18;54.96;100996.44;7277353;19;152846;-82
2022/06/29 11:43:43;;;;;;;;;;;;;;;22.13;55.22;100996.56;7280697;19;155525;-81
2022/06/29 11:46:21;;;;;;;;;;;;;;;22.12;55.40;100989.31;7275466;19;152458;-81
2022/06/29 11:49:33;;;;;;;;;;;;;;;22.17;54.74;100998.44;7277532;19;154175;-81
2022/06/29 11:51:35;;;;;;;;;;;;;;;22.17;54.97;100991.97;7276857;19;153590;-81
2022/06/29 11:54:05;;;;;;;;;;;;;;;22.25;54.29;100990.41;7287509;19;154084;-81
2022/06/29 11:56:32;;;;;;;;;;;;;;;22.18;54.58;100983.22;7273242;19;153246;-81
2022/06/29 11:59:03;;;;;;;;;;;;;;;22.16;54.90;100979.91;7281039;19;152080;-81
2022/06/29 12:01:30;;;;;;;;;;;;;;;22.18;54.34;100985.19;7280007;19;154114;-81
2022/06/29 12:03:58;;;;;;;;;;;;;;;22.20;54.26;100982.91;7278625;19;154403;-81
2022/06/29 12:06:29;;;;;;;;;;;;;;;22.17;54.23;100981.53;7276531;19;152256;-80
2022/06/29 12:08:56;;;;;;;;;;;;;;;22.16;53.97;100979.91;7281122;19;152659;-80
2022/06/29 12:11:23;;;;;;;;;;;;;;;22.13;54.45;100982.50;7276995;19;153056;-81
2022/06/29 12:13:50;;;;;;;;;;;;;;;22.11;54.42;100988.47;7280819;19;151928;-82
2022/06/29 12:16:17;;;;;;;;;;;;;;;22.14;54.11;100987.00;7283986;19;152332;-81
2022/06/29 12:18:45;;;;;;;;;;;;;;;22.14;54.14;100979.38;7279777;19;151862;-82
2022/06/29 12:21:12;;;;;;;;;;;;;;;22.14;53.87;100965.31;7277698;19;152539;-81
2022/06/29 12:23:39;;;;;;;;;;;;;;;22.15;53.37;100960.50;7280237;19;153295;-81
2022/06/29 12:26:06;;;;;;;;;;;;;;;22.13;53.68;100960.81;7285567;19;151694;-81
2022/06/29 12:28:33;;;;;;;;;;;;;;;22.14;53.46;100953.22;7286443;19;153174;-81
2022/06/29 12:31:00;;;;;;;;;;;;;;;22.14;53.53;100947.59;7286776;19;153593;-81
2022/06/29 12:33:26;;;;;;;;;;;;;;;22.16;53.13;100946.13;7282904;19;152848;-81
2022/06/29 12:35:54;;;;;;;;;;;;;;;22.13;53.27;100943.09;7283107;19;153358;-81
2022/06/29 12:38:21;;;;;;;;;;;;;;;22.17;52.85;100946.94;7293148;19;153222;-80
2022/06/29 12:40:47;;;;;;;;;;;;;;;22.17;52.66;100938.50;7283408;19;153375;-81
2022/06/29 12:43:14;;;;;;;;;;;;;;;22.16;52.25;100942.50;7285917;19;154106;-80
2022/06/29 12:45:41;;;;;;;;;;;;;;;22.16;52.57;100929.25;7282799;19;152269;-81
2022/06/29 12:48:08;;;;;;;;;;;;;;;22.16;52.86;100939.69;7285279;19;152895;-81
2022/06/29 12:50:34;;;;;;;;;;;;;;;22.13;52.56;100938.31;7281333;19;154479;-81
2022/06/29 12:53:08;;;;;;;;;;;;;;;22.14;52.43;100939.16;7283895;19;152795;-81